createdAt,value
2022-08-05T00:00:17.351Z,4.32
2022-08-05T00:02:50.882Z,4.38
2022-08-05T00:06:01.923Z,5.00
2022-08-05T00:08:32.655Z,4.65
2022-08-05T00:10:57.329Z,5.05
2022-08-05T00:13:39.084Z,5.45
2022-08-05T00:16:12.255Z,5.30
2022-08-05T00:18:42.525Z,4.55
2022-08-05T00:21:12.540Z,5.53
2022-08-05T00:23:46.307Z,5.68
2022-08-05T00:26:20.620Z,6.00
2022-08-05T00:28:47.550Z,5.50
2022-08-05T00:31:16.285Z,5.38
2022-08-05T00:34:54.889Z,5.63
2022-08-05T00:37:10.690Z,4.97
2022-08-05T00:39:16.963Z,5.43
2022-08-05T00:41:55.068Z,5.70
2022-08-05T00:44:30.663Z,5.20
2022-08-05T00:47:01.844Z,5.32
2022-08-05T00:49:44.350Z,5.65
2022-08-05T00:52:28.233Z,4.95
2022-08-05T00:54:56.308Z,5.70
2022-08-05T00:57:25.447Z,5.07
2022-08-05T00:59:58.904Z,5.22
2022-08-05T01:02:25.845Z,5.68
2022-08-05T01:04:52.721Z,5.97
2022-08-05T01:07:19.646Z,5.80
2022-08-05T01:09:46.724Z,5.65
2022-08-05T01:12:25.165Z,6.15
2022-08-05T01:15:35.480Z,5.97
2022-08-05T01:18:05.224Z,5.70
2022-08-05T01:20:58.042Z,5.50
2022-08-05T01:23:43.646Z,6.30
2022-08-05T01:26:31.867Z,7.22
2022-08-05T01:29:05.108Z,6.40
2022-08-05T01:31:49.706Z,6.22
2022-08-05T01:34:28.047Z,6.50
2022-08-05T01:37:24.697Z,6.55
2022-08-05T01:39:54.981Z,5.75
2022-08-05T01:42:27.771Z,6.03
2022-08-05T01:44:59.173Z,6.97
2022-08-05T01:47:38.555Z,5.90
2022-08-05T01:50:28.698Z,6.57
2022-08-05T01:53:01.572Z,7.43
2022-08-05T01:55:32.413Z,6.35
2022-08-05T01:58:12.358Z,7.25
2022-08-05T02:00:45.709Z,7.40
2022-08-05T02:03:31.333Z,8.25
2022-08-05T02:06:05.525Z,7.38
2022-08-05T02:08:57.912Z,8.35
2022-08-05T02:11:33.121Z,8.70
2022-08-05T02:14:17.614Z,8.10
2022-08-05T02:16:52.479Z,7.95
2022-08-05T02:19:46.940Z,8.10
2022-08-05T02:22:27.271Z,8.50
2022-08-05T02:25:05.100Z,8.55
2022-08-05T02:27:59.905Z,10.65
2022-08-05T02:30:26.898Z,9.68
2022-08-05T02:32:56.083Z,10.05
2022-08-05T02:35:28.175Z,9.18
2022-08-05T02:38:02.170Z,9.63
2022-08-05T02:40:31.523Z,10.20
2022-08-05T02:42:59.692Z,10.02
2022-08-05T02:45:28.646Z,10.02
2022-08-05T02:48:17.372Z,10.13
2022-08-05T02:50:47.417Z,10.45
2022-08-05T02:53:18.892Z,10.65
2022-08-05T02:56:00.093Z,9.73
2022-08-05T02:58:30.343Z,10.00
2022-08-05T03:01:00.768Z,9.52
2022-08-05T03:03:33.970Z,10.02
2022-08-05T03:06:54.921Z,9.70
2022-08-05T03:09:06.720Z,9.57
2022-08-05T03:11:57.093Z,9.13
2022-08-05T03:14:21.785Z,9.27
2022-08-05T03:16:48.793Z,9.27
2022-08-05T03:19:33.174Z,9.75
2022-08-05T03:22:01.637Z,9.15
2022-08-05T03:24:30.913Z,8.73
2022-08-05T03:26:59.409Z,8.90
2022-08-05T03:29:44.353Z,8.40
2022-08-05T03:32:14.388Z,8.52
2022-08-05T03:34:50.820Z,9.05
2022-08-05T03:37:20.579Z,8.82
2022-08-05T03:40:01.765Z,8.68
2022-08-05T03:42:32.966Z,8.52
2022-08-05T03:45:21.857Z,8.70
2022-08-05T03:47:51.169Z,8.55
2022-08-05T03:50:18.362Z,8.48
2022-08-05T03:55:06.866Z,7.50
2022-08-05T03:56:35.894Z,6.93
2022-08-05T03:59:06.450Z,7.60
2022-08-05T04:01:37.855Z,7.28
2022-08-05T04:04:09.890Z,7.03
2022-08-05T04:06:38.430Z,7.10
2022-08-05T04:09:15.925Z,6.68
2022-08-05T04:11:53.437Z,6.70
2022-08-05T04:14:30.089Z,5.90
2022-08-05T04:17:00.194Z,6.28
2022-08-05T04:19:31.191Z,6.60
2022-08-05T04:22:09.849Z,5.72
2022-08-05T04:24:52.324Z,6.10
2022-08-05T04:27:41.516Z,6.25
2022-08-05T04:30:09.151Z,5.95
2022-08-05T04:32:36.678Z,6.95
2022-08-05T04:35:05.217Z,7.28
2022-08-05T04:38:02.105Z,6.15
2022-08-05T04:40:21.529Z,6.65
2022-08-05T04:42:48.944Z,6.25
2022-08-05T04:45:31.109Z,6.07
2022-08-05T04:48:05.438Z,6.03
2022-08-05T04:51:03.075Z,5.95
2022-08-05T04:53:25.409Z,5.70
2022-08-05T04:56:15.129Z,6.07
2022-08-05T04:58:39.265Z,5.75
2022-08-05T05:01:06.546Z,6.88
2022-08-05T05:03:42.329Z,6.32
2022-08-05T05:06:39.382Z,6.85
2022-08-05T05:08:59.908Z,7.07
2022-08-05T05:11:41.550Z,7.20
2022-08-05T05:14:15.966Z,7.03
2022-08-05T05:16:43.291Z,7.20
2022-08-05T05:19:19.366Z,7.50
2022-08-05T05:21:50.402Z,7.72
2022-08-05T05:24:22.555Z,7.68
2022-08-05T05:27:09.452Z,7.38
2022-08-05T05:30:04.496Z,7.93
2022-08-05T05:32:24.084Z,7.30
2022-08-05T05:34:52.964Z,7.45
2022-08-05T05:37:20.650Z,7.47
2022-08-05T05:39:56.104Z,8.20
2022-08-05T05:42:23.385Z,7.35
2022-08-05T05:44:51.090Z,7.20
2022-08-05T05:47:22.113Z,7.47
2022-08-05T05:49:56.982Z,6.68
2022-08-05T05:52:34.525Z,6.55
2022-08-05T05:55:13.397Z,6.30
2022-08-05T05:57:52.909Z,6.13
2022-08-05T06:00:21.702Z,6.78
2022-08-05T06:02:58.565Z,6.43
2022-08-05T06:05:25.808Z,5.93
2022-08-05T06:07:57.884Z,6.88
2022-08-05T06:10:29.228Z,6.70
2022-08-05T06:12:56.507Z,6.55
2022-08-05T06:15:25.128Z,6.50
2022-08-05T06:18:11.973Z,6.57
2022-08-05T06:20:38.883Z,6.07
2022-08-05T06:23:05.728Z,6.03
2022-08-05T06:26:12.424Z,6.78
2022-08-05T06:28:21.266Z,5.90
2022-08-05T06:30:48.861Z,6.07
2022-08-05T06:33:19.398Z,6.47
2022-08-05T06:36:07.684Z,5.97
2022-08-05T06:38:37.273Z,6.90
2022-08-05T06:41:07.693Z,6.78
2022-08-05T06:43:58.622Z,6.57
2022-08-05T06:46:22.843Z,5.90
2022-08-05T06:48:59.038Z,6.97
2022-08-05T06:51:30.161Z,6.80
2022-08-05T06:54:02.893Z,6.90
2022-08-05T06:56:34.116Z,6.70
2022-08-05T06:59:02.166Z,6.55
2022-08-05T07:01:32.363Z,6.93
2022-08-05T07:04:02.186Z,6.93
2022-08-05T07:06:29.382Z,6.93
2022-08-05T07:08:59.030Z,6.30
2022-08-05T07:11:28.835Z,7.05
2022-08-05T07:14:20.541Z,7.30
2022-08-05T07:17:58.836Z,6.63
2022-08-05T07:22:35.844Z,6.95
2022-08-05T07:25:23.058Z,7.13
2022-08-05T07:27:58.272Z,7.05
2022-08-05T07:30:38.429Z,6.88
2022-08-05T07:33:16.122Z,6.38
2022-08-05T07:36:04.336Z,5.45
2022-08-05T07:38:43.208Z,5.75
2022-08-05T07:42:07.246Z,5.68
2022-08-05T07:44:05.523Z,5.20
2022-08-05T07:46:38.861Z,5.38
2022-08-05T07:49:07.959Z,5.13
2022-08-05T07:51:40.826Z,5.18
2022-08-05T07:54:26.583Z,5.32
2022-08-05T07:57:13.575Z,4.70
2022-08-05T07:59:44.180Z,5.55
2022-08-05T08:02:15.969Z,5.15
2022-08-05T08:04:49.250Z,5.53
2022-08-05T08:07:22.428Z,6.03
2022-08-05T08:09:52.599Z,6.63
2022-08-05T08:12:35.103Z,6.82
2022-08-05T08:15:09.743Z,6.47
2022-08-05T08:17:46.252Z,6.47
2022-08-05T08:20:44.174Z,6.75
2022-08-05T08:23:04.920Z,6.72
2022-08-05T08:25:59.774Z,6.35
2022-08-05T08:28:35.478Z,6.57
2022-08-05T08:31:06.319Z,5.95
2022-08-05T08:33:37.611Z,6.10
2022-08-05T08:36:38.539Z,6.30
2022-08-05T08:38:56.999Z,6.18
2022-08-05T08:41:50.872Z,5.97
2022-08-05T08:45:22.541Z,6.15
2022-08-05T08:47:46.970Z,7.03
2022-08-05T08:50:22.533Z,5.78
2022-08-05T08:52:43.692Z,6.22
2022-08-05T08:58:05.585Z,6.20
2022-08-05T09:00:33.788Z,6.32
2022-08-05T09:03:05.776Z,6.22
2022-08-05T09:08:27.502Z,5.85
2022-08-05T09:10:59.064Z,5.78
2022-08-05T09:13:31.787Z,5.53
2022-08-05T09:16:14.716Z,6.13
2022-08-05T09:18:44.519Z,5.82
2022-08-05T09:21:20.885Z,5.78
2022-08-05T09:24:08.721Z,5.65
2022-08-05T09:26:37.441Z,6.03
2022-08-05T09:29:07.019Z,6.28
2022-08-05T09:32:40.352Z,6.28
2022-08-05T09:34:23.050Z,5.85
2022-08-05T09:36:55.251Z,5.30
2022-08-05T09:39:41.167Z,5.32
2022-08-05T09:42:24.364Z,6.20
2022-08-05T09:44:55.996Z,6.57
2022-08-05T09:47:30.665Z,6.10
2022-08-05T09:50:13.792Z,6.65
2022-08-05T09:52:45.784Z,6.55
2022-08-05T09:55:57.261Z,7.03
2022-08-05T09:58:13.357Z,7.57
2022-08-05T10:00:52.471Z,8.63
2022-08-05T10:03:19.501Z,8.75
2022-08-05T10:05:47.845Z,8.93
2022-08-05T10:08:35.948Z,9.50
2022-08-05T10:11:13.509Z,8.80
2022-08-05T10:13:47.751Z,8.43
2022-08-05T10:16:41.685Z,8.05
2022-08-05T10:19:23.304Z,8.35
2022-08-05T10:21:58.912Z,8.75
2022-08-05T10:24:26.993Z,8.63
2022-08-05T10:27:00.472Z,8.68
2022-08-05T10:30:41.829Z,8.85
2022-08-05T10:33:00.860Z,7.72
2022-08-05T10:35:03.921Z,8.10
2022-08-05T10:37:40.498Z,8.50
2022-08-05T10:40:31.667Z,8.30
2022-08-05T10:43:06.345Z,8.00
2022-08-05T10:45:40.090Z,8.73
2022-08-05T10:51:01.484Z,8.13
2022-08-05T10:53:38.006Z,8.23
2022-08-05T10:56:21.387Z,7.85
2022-08-05T10:58:55.695Z,7.93
2022-08-05T11:01:54.144Z,7.85
2022-08-05T11:04:23.326Z,7.75
2022-08-05T11:07:04.873Z,6.78
2022-08-05T11:09:46.551Z,6.45
2022-08-05T11:12:50.479Z,6.93
2022-08-05T11:15:21.511Z,6.65
2022-08-05T11:18:00.484Z,6.15
2022-08-05T11:20:45.105Z,6.47
2022-08-05T11:23:33.568Z,5.82
2022-08-05T11:26:27.747Z,5.68
2022-08-05T11:28:56.657Z,5.38
2022-08-05T11:31:58.789Z,6.00
2022-08-05T11:34:36.862Z,5.88
2022-08-05T11:37:06.240Z,5.60
2022-08-05T11:39:55.465Z,5.40
2022-08-05T11:42:28.238Z,4.82
2022-08-05T11:45:03.202Z,5.15
2022-08-05T11:47:48.600Z,5.10
2022-08-05T11:50:17.847Z,4.88
2022-08-05T11:52:48.442Z,5.05
2022-08-05T11:55:16.583Z,5.00
2022-08-05T11:58:10.616Z,4.82
2022-08-05T12:00:38.454Z,5.25
2022-08-05T12:03:16.655Z,4.20
2022-08-05T12:10:53.929Z,4.53
2022-08-05T12:13:47.468Z,4.43
2022-08-05T12:16:15.594Z,4.28
2022-08-05T12:18:49.477Z,4.57
2022-08-05T12:21:30.172Z,4.72
2022-08-05T12:24:09.755Z,5.15
2022-08-05T12:26:52.635Z,4.20
2022-08-05T12:29:23.139Z,3.70
2022-08-05T12:31:57.916Z,4.13
2022-08-05T12:34:32.565Z,4.30
2022-08-05T12:37:06.545Z,3.50
2022-08-05T12:39:37.510Z,3.38
2022-08-05T12:42:17.649Z,3.15
2022-08-05T12:44:45.076Z,2.95
2022-08-05T12:47:25.455Z,3.33
2022-08-05T12:50:03.389Z,3.60
2022-08-05T12:52:38.516Z,3.10
2022-08-05T12:55:21.846Z,3.20
2022-08-05T12:58:48.202Z,2.92
2022-08-05T13:02:03.460Z,3.20
2022-08-05T13:03:32.610Z,3.20
2022-08-05T13:06:01.557Z,3.05
2022-08-05T13:08:30.282Z,3.08
2022-08-05T13:11:02.146Z,3.28
2022-08-05T13:14:05.714Z,3.25
2022-08-05T13:16:19.524Z,2.90
2022-08-05T13:18:57.968Z,3.15
2022-08-05T13:21:28.531Z,3.22
2022-08-05T13:24:08.757Z,2.63
2022-08-05T13:26:36.277Z,2.50
2022-08-05T13:29:05.171Z,2.45
2022-08-05T13:32:02.827Z,1.80
2022-08-05T13:34:25.935Z,1.80
2022-08-05T13:36:54.131Z,1.70
2022-08-05T13:40:13.488Z,1.90
2022-08-05T13:42:14.736Z,1.98
2022-08-05T13:44:46.379Z,2.00
2022-08-05T13:47:35.457Z,1.65
2022-08-05T13:52:35.949Z,1.45
2022-08-05T13:55:07.473Z,1.67
2022-08-05T13:57:51.308Z,1.40
2022-08-05T14:00:27.241Z,1.30
2022-08-05T14:02:56.853Z,1.75
2022-08-05T14:05:48.343Z,1.42
2022-08-05T14:08:20.907Z,1.73
2022-08-05T14:11:03.125Z,1.50
2022-08-05T14:13:41.594Z,1.63
2022-08-05T14:16:11.470Z,1.77
2022-08-05T14:18:38.623Z,1.95
2022-08-05T14:22:08.210Z,2.00
2022-08-05T14:23:53.143Z,2.50
2022-08-05T14:26:38.420Z,2.00
2022-08-05T14:29:16.244Z,2.13
2022-08-05T14:32:03.944Z,2.00
2022-08-05T14:37:03.740Z,2.13
2022-08-05T14:39:49.277Z,2.05
2022-08-05T14:42:21.011Z,2.17
2022-08-05T14:44:49.398Z,3.05
2022-08-05T14:47:16.988Z,2.10
2022-08-05T14:50:17.784Z,1.63
2022-08-05T14:52:57.748Z,1.90
2022-08-05T14:55:38.630Z,2.30
2022-08-05T14:58:11.782Z,1.73
2022-08-05T15:00:58.035Z,1.35
2022-08-05T15:03:33.949Z,1.25
2022-08-05T15:06:13.188Z,1.83
2022-08-05T15:09:01.210Z,1.60
2022-08-05T15:11:51.573Z,1.40
2022-08-05T15:14:34.719Z,1.42
2022-08-05T15:17:05.213Z,1.50
2022-08-05T15:19:37.314Z,1.95
2022-08-05T15:22:08.860Z,1.77
2022-08-05T15:24:36.525Z,1.30
2022-08-05T15:27:09.140Z,1.45
2022-08-05T15:29:41.848Z,1.23
2022-08-05T15:32:09.260Z,1.20
2022-08-05T15:34:36.179Z,1.25
2022-08-05T15:37:06.924Z,1.48
2022-08-05T15:41:04.305Z,1.85
2022-08-05T15:42:55.230Z,1.10
2022-08-05T15:45:18.726Z,1.10
2022-08-05T15:48:05.049Z,1.20
2022-08-05T15:50:33.638Z,0.95
2022-08-05T15:53:04.122Z,0.88
2022-08-05T15:56:02.043Z,0.93
2022-08-05T15:58:19.672Z,0.80
2022-08-05T16:01:03.416Z,0.80
2022-08-05T16:03:40.932Z,0.75
2022-08-05T16:06:11.342Z,1.08
2022-08-05T16:08:39.932Z,1.15
2022-08-05T16:11:08.921Z,0.90
2022-08-05T16:13:35.981Z,0.88
2022-08-05T16:16:04.157Z,0.80
2022-08-05T16:18:33.108Z,0.82
2022-08-05T16:21:04.260Z,0.70
2022-08-05T16:23:32.957Z,1.30
2022-08-05T16:26:20.068Z,0.85
2022-08-05T16:28:53.569Z,0.90
2022-08-05T16:31:21.592Z,1.02
2022-08-05T16:33:48.910Z,0.95
2022-08-05T16:36:20.483Z,0.90
2022-08-05T16:38:54.483Z,0.82
2022-08-05T16:42:15.105Z,1.20
2022-08-05T16:44:11.108Z,1.13
2022-08-05T16:46:41.095Z,1.10
2022-08-05T16:49:09.925Z,0.90
2022-08-05T16:51:42.562Z,1.00
2022-08-05T16:54:25.803Z,0.77
2022-08-05T16:56:55.622Z,0.98
2022-08-05T16:59:23.302Z,0.80
2022-08-05T17:01:54.673Z,1.10
2022-08-05T17:04:26.576Z,1.23
2022-08-05T17:06:55.449Z,1.50
2022-08-05T17:09:23.176Z,1.50
2022-08-05T17:11:56.039Z,1.10
2022-08-05T17:14:36.955Z,1.35
2022-08-05T17:17:14.444Z,1.33
2022-08-05T17:22:17.783Z,0.80
2022-08-05T17:24:57.968Z,0.93
2022-08-05T17:27:33.712Z,0.60
2022-08-05T17:30:12.191Z,0.68
2022-08-05T17:32:45.629Z,0.95
2022-08-05T17:35:15.501Z,0.70
2022-08-05T17:37:48.376Z,0.50
2022-08-05T17:40:17.260Z,0.50
2022-08-05T17:42:51.884Z,0.60
2022-08-05T17:45:22.169Z,0.63
2022-08-05T17:47:54.661Z,0.47
2022-08-05T17:50:28.869Z,0.50
2022-08-05T17:52:59.169Z,0.60
2022-08-05T17:55:27.217Z,0.73
2022-08-05T17:58:02.206Z,0.80
2022-08-05T18:00:29.806Z,0.80
2022-08-05T18:02:57.314Z,0.70
2022-08-05T18:05:28.051Z,0.70
2022-08-05T18:07:56.750Z,0.90
2022-08-05T18:10:23.914Z,0.70
2022-08-05T18:12:51.665Z,0.70
2022-08-05T18:15:19.022Z,1.40
2022-08-05T18:17:59.599Z,0.95
2022-08-05T18:20:32.044Z,0.90
2022-08-05T18:23:00.600Z,0.80
2022-08-05T18:25:39.101Z,1.08
2022-08-05T18:28:09.832Z,1.35
2022-08-05T18:30:39.027Z,1.00
2022-08-05T18:33:08.457Z,1.40
2022-08-05T18:35:59.993Z,1.90
2022-08-05T18:38:25.935Z,1.10
2022-08-05T18:41:56.461Z,1.13
2022-08-05T18:43:42.764Z,1.20
2022-08-05T18:46:15.942Z,1.33
2022-08-05T18:48:51.859Z,1.00
2022-08-05T18:52:05.360Z,1.00
2022-08-05T18:54:31.724Z,1.50
2022-08-05T18:57:02.597Z,1.27
2022-08-05T18:59:43.441Z,1.63
2022-08-05T19:02:28.671Z,1.45
2022-08-05T19:06:06.023Z,1.17
2022-08-05T19:07:55.313Z,1.40
2022-08-05T19:10:27.839Z,1.50
2022-08-05T19:12:56.972Z,1.90
2022-08-05T19:15:54.643Z,1.80
2022-08-05T19:18:20.643Z,1.50
2022-08-05T19:20:51.542Z,1.90
2022-08-05T19:24:04.286Z,1.83
2022-08-05T19:26:05.382Z,2.05
2022-08-05T19:28:42.122Z,2.47
2022-08-05T19:31:13.196Z,2.63
2022-08-05T19:33:48.302Z,2.90
2022-08-05T19:36:27.078Z,3.03
2022-08-05T19:39:01.180Z,3.10
2022-08-05T19:41:58.231Z,3.05
2022-08-05T19:44:19.200Z,2.80
2022-08-05T19:46:46.132Z,3.00
2022-08-05T19:49:16.867Z,2.97
2022-08-05T19:52:08.391Z,3.00
2022-08-05T19:54:34.671Z,2.85
2022-08-05T19:57:09.660Z,2.97
2022-08-05T19:59:56.320Z,2.60
2022-08-05T20:02:26.839Z,2.60
2022-08-05T20:04:55.601Z,2.55
2022-08-05T20:07:46.591Z,2.40
2022-08-05T20:10:14.494Z,2.38
2022-08-05T20:12:47.625Z,2.85
2022-08-05T20:15:48.099Z,2.50
2022-08-05T20:18:10.873Z,2.47
2022-08-05T20:20:52.157Z,3.08
2022-08-05T20:23:23.686Z,3.38
2022-08-05T20:26:08.980Z,3.53
2022-08-05T20:28:48.727Z,3.58
2022-08-05T20:31:17.070Z,2.72
2022-08-05T20:33:45.340Z,2.40
2022-08-05T20:36:14.309Z,2.28
2022-08-05T20:38:53.841Z,1.67
2022-08-05T20:41:27.445Z,1.10
2022-08-05T20:44:18.847Z,0.70
2022-08-05T20:47:03.542Z,1.48
2022-08-05T20:49:38.106Z,1.45
2022-08-05T20:52:08.539Z,1.38
2022-08-05T20:54:43.442Z,1.60
2022-08-05T20:57:41.803Z,1.92
2022-08-05T21:00:41.591Z,1.75
2022-08-05T21:03:04.505Z,1.60
2022-08-05T21:05:47.824Z,1.17
2022-08-05T21:08:28.140Z,1.20
2022-08-05T21:11:11.572Z,1.27
2022-08-05T21:13:47.512Z,1.10
2022-08-05T21:16:29.862Z,1.00
2022-08-05T21:19:01.680Z,1.30
2022-08-05T21:24:07.326Z,1.20
2022-08-05T21:26:34.159Z,1.83
2022-08-05T21:29:03.708Z,1.50
2022-08-05T21:31:41.474Z,1.35
2022-08-05T21:34:10.587Z,1.67
2022-08-05T21:36:39.443Z,2.25
2022-08-05T21:39:10.187Z,1.40
2022-08-05T21:41:41.873Z,1.23
2022-08-05T21:44:27.089Z,0.93
2022-08-05T21:46:57.919Z,1.00
2022-08-05T21:50:00.030Z,0.85
2022-08-05T21:52:21.625Z,0.85
2022-08-05T21:54:57.171Z,0.90
2022-08-05T21:57:32.708Z,0.73
2022-08-05T22:00:05.385Z,0.80
2022-08-05T22:02:34.456Z,0.60
2022-08-05T22:05:01.734Z,0.68
2022-08-05T22:07:39.834Z,0.52
2022-08-05T22:10:26.573Z,0.77
2022-08-05T22:12:59.152Z,0.68
2022-08-05T22:16:00.481Z,0.90
2022-08-05T22:18:25.791Z,1.00
2022-08-05T22:20:53.754Z,0.95
2022-08-05T22:24:03.007Z,0.68
2022-08-05T22:26:49.990Z,0.93
2022-08-05T22:29:19.049Z,0.90
2022-08-05T22:31:55.229Z,0.70
2022-08-05T22:34:28.502Z,0.90
2022-08-05T22:36:58.338Z,0.90
2022-08-05T22:39:32.505Z,0.95
2022-08-05T22:42:10.470Z,0.80
2022-08-05T22:44:48.243Z,0.80
2022-08-05T22:47:28.896Z,0.63
2022-08-05T22:50:19.423Z,1.00
2022-08-05T22:52:46.807Z,0.73
2022-08-05T22:55:18.284Z,0.82
2022-08-05T22:57:49.087Z,0.63
2022-08-05T23:00:18.310Z,0.80
2022-08-05T23:02:48.843Z,0.40
2022-08-05T23:05:16.099Z,0.65
2022-08-05T23:07:45.407Z,1.02
2022-08-05T23:10:20.230Z,0.50
2022-08-05T23:12:54.570Z,0.80
2022-08-05T23:15:29.364Z,0.80
2022-08-05T23:18:00.585Z,0.68
2022-08-05T23:20:37.027Z,0.50
2022-08-05T23:23:05.896Z,0.40
2022-08-05T23:25:53.471Z,0.63
2022-08-05T23:28:28.545Z,0.30
2022-08-05T23:30:56.780Z,0.43
2022-08-05T23:34:04.255Z,0.85
2022-08-05T23:36:39.951Z,0.85
2022-08-05T23:39:17.150Z,0.63
2022-08-05T23:41:50.949Z,0.60
2022-08-05T23:44:19.745Z,0.60
2022-08-05T23:46:49.806Z,0.60
2022-08-05T23:49:23.897Z,0.50
2022-08-05T23:52:19.569Z,0.47
2022-08-05T23:54:49.340Z,0.50
2022-08-05T23:57:16.423Z,0.50
